• Join FlightAware (Why Join?)
  • Login
  • US Flag 
07:40AM EDT


 

Airport Tracker/Info


-or-


 

Live Flight TrackerFlight Track Log ✈ SWA1725 ✈ 05-Apr-2013 ✈ KMDW - KBHM

Flight Track Log - Related Links

Times and Time Zones

All times are in EDT time to prevent confusion due to time zone crossing. See the SWA1725 flight status page for this flight to view local times or setup timezone preferences in your user account.

Time Position Orientation Groundspeed Altitude Reporting Facility
EDT Latitude Longitude Course Direction KTS MPH feet Rate Location/Type
09:33PM 41.8189 -87.7497 180° South 153 176 3,100  Level Chicago Center
09:34PM 41.7658 -87.7156 154° Southeast 253 291 5,600 3,480 Climbing Chicago Center
09:35PM 41.6953 -87.7508 200° South 269 310 10,300 4,200 Climbing Chicago Center
09:37PM 41.5944 -87.7956 198° South 319 367 14,400 3,600 Climbing Chicago Center
09:38PM 41.5006 -87.8383 199° South 346 398 17,800 3,360 Climbing Chicago Center
09:39PM 41.1376 -87.8833 180° South  Level FlightAware Approximate
09:39PM 41.3972 -87.8789 196° South 375 432 21,300  Level Chicago Center
09:40PM 41.2811 -87.8767 179° South 409 471 24,500 2,940 Climbing Chicago Center
09:41PM 41.1622 -87.8556 172° South 425 489 27,400 2,460 Climbing Chicago Center
09:42PM 41.0394 -87.8361 173° South 437 503 29,600 1,980 Climbing Chicago Center
09:43PM 40.9103 -87.8150 173° South 465 535 31,500 1,860 Climbing Chicago Center
09:44PM 40.7778 -87.7931 173° South 479 551 33,500 2,340 Climbing Chicago Center
09:45PM 40.6194 -87.7683 173° South 479 551 36,300 2,160 Climbing Chicago Center
09:46PM 40.4903 -87.7475 173° South 473 544 38,000 1,560 Climbing Chicago Center
09:47PM 40.3700 -87.7306 174° South 475 547 39,400 1,380 Climbing Indianapolis Center
09:48PM 40.2386 -87.7100 173° South 475 547 40,700 780 Climbing Indianapolis Center
09:49PM 40.1078 -87.6894 173° South 472 543 41,000 120 Climbing Indianapolis Center
09:50PM 39.9775 -87.6681 173° South 468 539 41,000  Level Indianapolis Center
09:51PM 39.8472 -87.6472 173° South 468 539 41,000  Level Indianapolis Center
09:52PM 39.7183 -87.6275 173° South 466 536 41,000  Level Indianapolis Center
09:53PM 39.5883 -87.6069 173° South 466 536 41,000  Level Indianapolis Center
09:54PM 39.4592 -87.5869 173° South 465 535 41,000  Level Indianapolis Center
09:55PM 39.3297 -87.5675 173° South 466 536 41,000  Level Indianapolis Center
09:56PM 39.1786 -87.5442 173° South 466 536 41,000  Level Indianapolis Center
09:57PM 39.0578 -87.5272 174° South 473 544 41,000  Level Indianapolis Center
09:58PM 38.9264 -87.5064 173° South 475 547 41,000  Level Indianapolis Center
09:59PM 38.7942 -87.4861 173° South 477 549 41,000  Level Indianapolis Center
10:00PM 38.6622 -87.4672 174° South 477 549 41,000  Level Indianapolis Center
10:01PM 38.5319 -87.4475 173° South 474 545 41,000  Level Indianapolis Center
10:02PM 38.3758 -87.4239 173° South 474 545 41,000  Level Indianapolis Center
10:03PM 38.2472 -87.4050 173° South 470 541 41,000  Level Indianapolis Center
10:04PM 38.1178 -87.3861 173° South 472 543 41,000  Level Indianapolis Center
10:05PM 37.9892 -87.3672 173° South 468 539 41,000  Level Indianapolis Center
10:06PM 37.8594 -87.3481 173° South 470 541 41,000  Level Indianapolis Center
10:07PM 37.7236 -87.3283 173° South 472 543 41,000  Level Indianapolis Center
10:08PM 37.5911 -87.3086 173° South 474 545 41,000  Level Indianapolis Center
10:09PM 37.5192 -87.3031 176° South 471 542 41,000  Level Memphis Center
10:10PM 37.3853 -87.2822 173° South 476 548 41,000  Level Memphis Center
10:11PM 37.2536 -87.2639 174° South 481 554 41,000  Level Memphis Center
10:12PM 37.1178 -87.2456 174° South 486 559 41,000  Level Memphis Center
10:13PM 36.9881 -87.2247 173° South 476 548 41,000  Level Memphis Center
10:14PM 36.8544 -87.2067 174° South 487 560 41,000  Level Memphis Center
10:15PM 36.7244 -87.1858 173° South 482 555 41,000  Level Memphis Center
10:16PM 36.5950 -87.1703 174° South 482 555 41,000  Level Memphis Center
10:17PM 36.4631 -87.1497 173° South 487 560 41,000  Level Memphis Center
10:18PM 36.3350 -87.1136 167° South 482 555 41,000  Level Memphis Center
10:19PM 36.2047 -87.0697 165° South 482 555 41,000  Level Memphis Center
10:20PM 36.0783 -87.0286 165° South 482 555 41,000  Level Memphis Center
10:21PM 35.9500 -86.9853 165° South 477 549 41,000  Level Memphis Center
10:22PM 35.8072 -86.9425 166° South 477 549 41,000  Level Memphis Center
10:24PM 35.5317 -86.8561 166° South 490 564 41,000  Level Atlanta Center
10:25PM 35.3969 -86.8158 166° South 475 547 41,000 -360 Level Atlanta Center
10:26PM 35.2664 -86.7733 165° South 475 547 40,300 -2,460 Descending Atlanta Center
10:27PM 35.1611 -86.7428 167° South 475 547 36,700 -4,020 Descending Memphis Center
10:28PM 35.0244 -86.7006 166° South 487 560 33,300 -3,000 Descending Memphis Center
10:29PM 34.8875 -86.6608 167° South 500 575 30,700 -2,760 Descending Memphis Center
10:30PM 34.7597 -86.6436 174° South 485 558 27,800 -3,060 Descending Memphis Center
10:32PM 34.5042 -86.7056 191° South 475 547 21,500 -3,120 Descending Atlanta Center
10:33PM 34.3867 -86.7397 193° South 428 493 18,400 -3,000 Descending Atlanta Center
10:33PM 34.3508 -86.7511 195° South 428 493 17,700 -2,760 Descending Atlanta Center
10:34PM 34.2717 -86.7461 177° South 439 505 15,600 -3,000 Descending Atlanta Center
10:34PM 34.2361 -86.7525 188° South 409 471 14,700 -2,940 Descending Atlanta Center
10:35PM 34.1589 -86.7450 175° South 419 482 12,700 -3,000 Descending Atlanta Center
10:35PM 34.1211 -86.7539 191° South 387 445 11,700 -1,740 Descending Atlanta Center
10:36PM 34.0525 -86.7492 177° South 405 466 11,000 -900 Descending Atlanta Center
10:36PM 34.0169 -86.7531 185° South 371 427 10,800 -1,440 Descending Atlanta Center
10:37PM 33.9497 -86.7658 189° South 388 447 9,600 -1,320 Descending Atlanta Center
10:37PM 33.9203 -86.7750 194° South 338 389 9,500 -900 Descending Atlanta Center
10:38PM 33.8658 -86.7858 189° South 352 405 8,700 -1,320 Descending Atlanta Center
10:38PM 33.8364 -86.7972 198° South 300 345 8,200 -1,440 Descending Atlanta Center
10:39PM 33.7842 -86.8056 188° South 325 374 7,300 -1,500 Descending Atlanta Center
10:39PM 33.7525 -86.8147 194° South 286 329 6,700 -1,800 Descending Atlanta Center
10:40PM 33.7122 -86.8408 208° Southwest 296 341 5,500 -1,680 Descending Atlanta Center
10:40PM 33.6886 -86.8675 223° Southwest 291 335 5,000 -720 Descending Atlanta Center
10:41PM 33.6544 -86.9036 221° Southwest 280 322 4,800 -420 Descending Atlanta Center
10:41PM 33.6331 -86.9281 224° Southwest 253 291 4,600 -900 Descending Atlanta Center
10:42PM 33.6031 -86.9569 219° Southwest 269 310 3,900 -1,140 Descending Atlanta Center
10:42PM 33.5817 -86.9811 223° Southwest 240 276 3,500 -660 Descending Atlanta Center
10:43PM 33.5269 -87.0042 199° South 228 262 3,000 -540 Descending Atlanta Center